Etusivu
METAR-TAF:

METAR-TAF

Lentoasemat :

Amboulin kansainvälinen lentoasema

Djibouti, Djibouti

Leveyspiiri: 11-33N, Pituuspiiri: 043-10E, korkeus merenpinnasta: 49 m

Tämänhetkinen sää

Tämä raportti tehtiin 2 tuntia ja 33 minuuttia sitten, kello 10.00 UTC
Tuuli 10 kn idästä/koillisesta
Lämpötila 36°C
Kosteus 50%
Ilmanpaine 1005 hPa
Näkyvyys: 7000 m
selkeää
usvaa

METAR: HDAM 251000Z 06010KT 7000 HZ SKC 36/24 Q1005

Aika: 15:33 (12:33 UTC)

Sääennuste

Tämä raportti tehtiin 1 tunti ja 33 minuuttia sitten, kello 11.00 UTC
Ennuste voimassa 25. päivästä klo 12 UTC - 26. päivään klo 12 UTC
Tuuli 10 kn idästä
Näkyvyys 10 km tai enemmän
Muutamia pilviä 2300 ft:n korkeudessa
Tulossa
25. päivästä klo 15 UTC - 25. päivään klo 21 UTC
Tuuli 3 kn eri suunnista
Tulossa
26. päivästä klo 00 UTC - 26. päivään klo 06 UTC
Tuuli kn pohjoisesta
Hajanaisia pilviä 2300 ft:n korkeudessa

TAF: HDAM 251100Z 2512/2612 08010KT 9999 FEW023 BECMG 2515/2521 VRB03KT BECMG 2600/2606 00000KT SCT023

Säähavainnot ja -ennusteet yli 4000 lentoasemalta (METAR- ja TAF-raportit).

Käytössä olevat sääasemat on merkitty karttaan keltaisilla ja punaisilla pisteillä.

Aseta hiiri pisteen päälle nähdäksesi sääaseman nimen.

Klikkaa sitten nähdäksesi säähavainnot ja -ennusteet.

Kartan vaihtaminen: klikkaa mustalla rastilla varustettuja vihreitä pisteitä, niin voit zoomata sisään; viivalla varustettua vihreää pistettä, niin voit zoomata ulos tai vihreitä nuolia, niin pääset viereisille kartoille.


METAR-TAF: